sensor_id;sensor_type;location;lat;lon;timestamp;pressure;altitude;pressure_sealevel;temperature
73662;BMP280;61956;52.540;13.382;2023-05-23T00:01:15;95247.94;;;20.03
73662;BMP280;61956;52.540;13.382;2023-05-23T00:03:48;94963.75;;;20.01
73662;BMP280;61956;52.540;13.382;2023-05-23T00:06:20;94891.91;;;19.94
73662;BMP280;61956;52.540;13.382;2023-05-23T00:08:49;95372.34;;;20.00
73662;BMP280;61956;52.540;13.382;2023-05-23T00:11:18;95069.44;;;19.95
73662;BMP280;61956;52.540;13.382;2023-05-23T00:13:51;94934.84;;;19.91
73662;BMP280;61956;52.540;13.382;2023-05-23T00:16:22;95054.25;;;19.90
73662;BMP280;61956;52.540;13.382;2023-05-23T00:18:54;95128.56;;;19.91
73662;BMP280;61956;52.540;13.382;2023-05-23T00:21:23;94944.03;;;19.87
73662;BMP280;61956;52.540;13.382;2023-05-23T00:23:55;95024.72;;;19.86
73662;BMP280;61956;52.540;13.382;2023-05-23T00:26:24;95052.59;;;19.84
73662;BMP280;61956;52.540;13.382;2023-05-23T00:28:54;94739.34;;;19.80
73662;BMP280;61956;52.540;13.382;2023-05-23T00:31:25;94646.81;;;19.76
73662;BMP280;61956;52.540;13.382;2023-05-23T00:33:56;94616.91;;;19.73
73662;BMP280;61956;52.540;13.382;2023-05-23T00:36:25;94542.03;;;19.68
73662;BMP280;61956;52.540;13.382;2023-05-23T00:38:55;94578.53;;;19.66
73662;BMP280;61956;52.540;13.382;2023-05-23T00:41:24;94680.97;;;19.66
73662;BMP280;61956;52.540;13.382;2023-05-23T00:43:56;94462.41;;;19.62
73662;BMP280;61956;52.540;13.382;2023-05-23T00:46:26;94385.69;;;19.58
73662;BMP280;61956;52.540;13.382;2023-05-23T00:48:58;94190.06;;;19.54
73662;BMP280;61956;52.540;13.382;2023-05-23T00:51:27;93865.34;;;19.45
73662;BMP280;61956;52.540;13.382;2023-05-23T00:53:57;94072.72;;;19.45
73662;BMP280;61956;52.540;13.382;2023-05-23T00:56:29;94017.34;;;19.43
73662;BMP280;61956;52.540;13.382;2023-05-23T00:58:58;94183.63;;;19.40
73662;BMP280;61956;52.540;13.382;2023-05-23T01:01:28;93959.97;;;19.36
73662;BMP280;61956;52.540;13.382;2023-05-23T01:04:01;93830.78;;;19.32
73662;BMP280;61956;52.540;13.382;2023-05-23T01:06:31;93953.88;;;19.30
73662;BMP280;61956;52.540;13.382;2023-05-23T01:09:01;93873.69;;;19.29
73662;BMP280;61956;52.540;13.382;2023-05-23T01:11:34;93910.63;;;19.25
73662;BMP280;61956;52.540;13.382;2023-05-23T01:14:11;93932.06;;;19.24
73662;BMP280;61956;52.540;13.382;2023-05-23T01:16:51;93964.72;;;19.23
73662;BMP280;61956;52.540;13.382;2023-05-23T01:19:46;94038.69;;;19.21
73662;BMP280;61956;52.540;13.382;2023-05-23T01:22:37;94225.00;;;19.21
73662;BMP280;61956;52.540;13.382;2023-05-23T01:25:36;94261.75;;;19.21
73662;BMP280;61956;52.540;13.382;2023-05-23T01:28:19;94395.09;;;19.23
73662;BMP280;61956;52.540;13.382;2023-05-23T01:30:51;94312.03;;;19.19
73662;BMP280;61956;52.540;13.382;2023-05-23T01:33:27;94551.16;;;19.22
73662;BMP280;61956;52.540;13.382;2023-05-23T01:36:00;94201.53;;;19.17
73662;BMP280;61956;52.540;13.382;2023-05-23T01:38:30;94345.16;;;19.17
73662;BMP280;61956;52.540;13.382;2023-05-23T01:41:00;94539.34;;;19.17
73662;BMP280;61956;52.540;13.382;2023-05-23T01:43:33;94199.78;;;19.14
73662;BMP280;61956;52.540;13.382;2023-05-23T01:46:03;94630.03;;;19.18
73662;BMP280;61956;52.540;13.382;2023-05-23T01:48:35;94255.34;;;19.13
73662;BMP280;61956;52.540;13.382;2023-05-23T01:51:07;94273.00;;;19.12
73662;BMP280;61956;52.540;13.382;2023-05-23T01:53:36;94549.97;;;19.13
73662;BMP280;61956;52.540;13.382;2023-05-23T01:56:09;94489.63;;;19.13
73662;BMP280;61956;52.540;13.382;2023-05-23T01:58:41;94690.53;;;19.14
73662;BMP280;61956;52.540;13.382;2023-05-23T02:01:10;94520.84;;;19.11
73662;BMP280;61956;52.540;13.382;2023-05-23T02:03:40;94419.63;;;19.10
73662;BMP280;61956;52.540;13.382;2023-05-23T02:06:09;94580.47;;;19.11
73662;BMP280;61956;52.540;13.382;2023-05-23T02:08:38;94679.00;;;19.12
73662;BMP280;61956;52.540;13.382;2023-05-23T02:11:08;94496.19;;;19.09
73662;BMP280;61956;52.540;13.382;2023-05-23T02:13:41;94623.59;;;19.10
73662;BMP280;61956;52.540;13.382;2023-05-23T02:16:10;94541.97;;;19.08
73662;BMP280;61956;52.540;13.382;2023-05-23T02:18:40;93936.69;;;18.99
73662;BMP280;61956;52.540;13.382;2023-05-23T02:21:11;93508.09;;;18.91
73662;BMP280;61956;52.540;13.382;2023-05-23T02:23:40;94026.94;;;18.92
73662;BMP280;61956;52.540;13.382;2023-05-23T02:26:10;94114.97;;;18.94
73662;BMP280;61956;52.540;13.382;2023-05-23T02:28:41;93828.53;;;18.89
73662;BMP280;61956;52.540;13.382;2023-05-23T02:31:10;93632.91;;;18.83
73662;BMP280;61956;52.540;13.382;2023-05-23T02:33:39;93698.22;;;18.81
73662;BMP280;61956;52.540;13.382;2023-05-23T02:36:08;93504.84;;;18.76
73662;BMP280;61956;52.540;13.382;2023-05-23T02:38:38;93590.38;;;18.73
73662;BMP280;61956;52.540;13.382;2023-05-23T02:41:07;94124.63;;;18.78
73662;BMP280;61956;52.540;13.382;2023-05-23T02:43:36;94255.63;;;18.82
73662;BMP280;61956;52.540;13.382;2023-05-23T02:46:08;94415.91;;;18.84
73662;BMP280;61956;52.540;13.382;2023-05-23T02:48:38;94488.88;;;18.85
73662;BMP280;61956;52.540;13.382;2023-05-23T02:51:07;94229.38;;;18.82
73662;BMP280;61956;52.540;13.382;2023-05-23T02:53:38;94350.03;;;18.82
73662;BMP280;61956;52.540;13.382;2023-05-23T02:56:07;94232.16;;;18.78
73662;BMP280;61956;52.540;13.382;2023-05-23T02:58:38;94659.09;;;18.83
73662;BMP280;61956;52.540;13.382;2023-05-23T03:01:10;94475.50;;;18.83
73662;BMP280;61956;52.540;13.382;2023-05-23T03:03:39;94759.81;;;18.86
73662;BMP280;61956;52.540;13.382;2023-05-23T03:06:09;94704.72;;;18.86
73662;BMP280;61956;52.540;13.382;2023-05-23T03:08:39;94792.03;;;18.86
73662;BMP280;61956;52.540;13.382;2023-05-23T03:11:09;94828.47;;;18.84
73662;BMP280;61956;52.540;13.382;2023-05-23T03:13:38;94927.28;;;18.87
73662;BMP280;61956;52.540;13.382;2023-05-23T03:16:10;94521.25;;;18.82
73662;BMP280;61956;52.540;13.382;2023-05-23T03:18:40;94534.81;;;18.81
73662;BMP280;61956;52.540;13.382;2023-05-23T03:21:10;93957.44;;;18.73
73662;BMP280;61956;52.540;13.382;2023-05-23T03:23:39;94170.28;;;18.72
73662;BMP280;61956;52.540;13.382;2023-05-23T03:26:08;94360.53;;;18.73
73662;BMP280;61956;52.540;13.382;2023-05-23T03:28:38;93830.50;;;18.65
73662;BMP280;61956;52.540;13.382;2023-05-23T03:31:09;94234.09;;;18.69
73662;BMP280;61956;52.540;13.382;2023-05-23T03:33:39;94283.19;;;18.68
73662;BMP280;61956;52.540;13.382;2023-05-23T03:36:09;94343.50;;;18.68
73662;BMP280;61956;52.540;13.382;2023-05-23T03:38:38;94455.09;;;18.69
73662;BMP280;61956;52.540;13.382;2023-05-23T03:41:07;94305.78;;;18.65
73662;BMP280;61956;52.540;13.382;2023-05-23T03:43:37;94206.59;;;18.64
73662;BMP280;61956;52.540;13.382;2023-05-23T03:46:06;94289.75;;;18.63
73662;BMP280;61956;52.540;13.382;2023-05-23T03:48:38;94180.09;;;18.62
73662;BMP280;61956;52.540;13.382;2023-05-23T03:51:08;93996.00;;;18.58
73662;BMP280;61956;52.540;13.382;2023-05-23T03:53:38;93844.59;;;18.53
73662;BMP280;61956;52.540;13.382;2023-05-23T03:56:07;93841.69;;;18.51
73662;BMP280;61956;52.540;13.382;2023-05-23T03:58:36;93988.06;;;18.52
73662;BMP280;61956;52.540;13.382;2023-05-23T04:01:10;93789.00;;;18.49
73662;BMP280;61956;52.540;13.382;2023-05-23T04:03:42;93879.31;;;18.48
73662;BMP280;61956;52.540;13.382;2023-05-23T04:06:13;93621.91;;;18.44
73662;BMP280;61956;52.540;13.382;2023-05-23T04:08:44;93687.91;;;18.42
73662;BMP280;61956;52.540;13.382;2023-05-23T04:11:14;94018.84;;;18.43
73662;BMP280;61956;52.540;13.382;2023-05-23T04:13:43;94083.88;;;18.44
73662;BMP280;61956;52.540;13.382;2023-05-23T04:16:12;93930.88;;;18.42
73662;BMP280;61956;52.540;13.382;2023-05-23T04:18:44;93882.56;;;18.43
73662;BMP280;61956;52.540;13.382;2023-05-23T04:21:14;94178.69;;;18.43
73662;BMP280;61956;52.540;13.382;2023-05-23T04:23:53;93932.97;;;18.37
73662;BMP280;61956;52.540;13.382;2023-05-23T04:26:22;94182.91;;;18.40
73662;BMP280;61956;52.540;13.382;2023-05-23T04:28:52;94147.69;;;18.41
73662;BMP280;61956;52.540;13.382;2023-05-23T04:31:22;94461.31;;;18.44
73662;BMP280;61956;52.540;13.382;2023-05-23T04:33:54;94543.34;;;18.45
73662;BMP280;61956;52.540;13.382;2023-05-23T04:36:23;94426.09;;;18.45
73662;BMP280;61956;52.540;13.382;2023-05-23T04:38:54;94349.06;;;18.43
73662;BMP280;61956;52.540;13.382;2023-05-23T04:41:23;94383.16;;;18.43
73662;BMP280;61956;52.540;13.382;2023-05-23T04:44:17;94710.34;;;18.44
73662;BMP280;61956;52.540;13.382;2023-05-23T04:47:07;94670.63;;;18.46
73662;BMP280;61956;52.540;13.382;2023-05-23T04:50:15;94375.28;;;18.43
73662;BMP280;61956;52.540;13.382;2023-05-23T04:52:47;94432.22;;;18.42
73662;BMP280;61956;52.540;13.382;2023-05-23T04:55:16;94188.16;;;18.40
73662;BMP280;61956;52.540;13.382;2023-05-23T04:57:46;93944.28;;;18.34
73662;BMP280;61956;52.540;13.382;2023-05-23T05:00:16;94234.75;;;18.36
73662;BMP280;61956;52.540;13.382;2023-05-23T05:02:46;94052.22;;;18.33
73662;BMP280;61956;52.540;13.382;2023-05-23T05:05:18;94073.59;;;18.31
73662;BMP280;61956;52.540;13.382;2023-05-23T05:07:47;93697.63;;;18.27
73662;BMP280;61956;52.540;13.382;2023-05-23T05:10:16;93902.00;;;18.27
73662;BMP280;61956;52.540;13.382;2023-05-23T05:12:46;93385.13;;;18.21
73662;BMP280;61956;52.540;13.382;2023-05-23T05:15:17;93410.78;;;18.17
73662;BMP280;61956;52.540;13.382;2023-05-23T05:17:51;93928.81;;;18.22
73662;BMP280;61956;52.540;13.382;2023-05-23T05:20:24;93839.44;;;18.20
73662;BMP280;61956;52.540;13.382;2023-05-23T05:22:56;93822.31;;;18.19
73662;BMP280;61956;52.540;13.382;2023-05-23T05:25:27;93675.31;;;18.17
73662;BMP280;61956;52.540;13.382;2023-05-23T05:27:57;94296.06;;;18.20
73662;BMP280;61956;52.540;13.382;2023-05-23T05:30:27;94302.75;;;18.21
73662;BMP280;61956;52.540;13.382;2023-05-23T05:33:00;93937.59;;;18.19
73662;BMP280;61956;52.540;13.382;2023-05-23T05:35:32;93299.25;;;18.10
73662;BMP280;61956;52.540;13.382;2023-05-23T05:38:03;93505.47;;;18.09
73662;BMP280;61956;52.540;13.382;2023-05-23T05:40:33;93416.59;;;18.06
73662;BMP280;61956;52.540;13.382;2023-05-23T05:43:02;93313.50;;;18.03
73662;BMP280;61956;52.540;13.382;2023-05-23T05:45:31;93170.44;;;18.00
73662;BMP280;61956;52.540;13.382;2023-05-23T05:48:01;93132.78;;;17.98
73662;BMP280;61956;52.540;13.382;2023-05-23T05:50:33;93397.22;;;17.98
73662;BMP280;61956;52.540;13.382;2023-05-23T05:53:03;93597.25;;;18.00
73662;BMP280;61956;52.540;13.382;2023-05-23T05:55:33;93439.09;;;17.98
73662;BMP280;61956;52.540;13.382;2023-05-23T05:58:05;93751.75;;;18.00
73662;BMP280;61956;52.540;13.382;2023-05-23T06:00:59;93849.34;;;18.01
73662;BMP280;61956;52.540;13.382;2023-05-23T06:03:30;94024.38;;;18.02
73662;BMP280;61956;52.540;13.382;2023-05-23T06:06:02;93573.41;;;17.98
73662;BMP280;61956;52.540;13.382;2023-05-23T06:08:31;94041.97;;;18.02
73662;BMP280;61956;52.540;13.382;2023-05-23T06:11:00;94489.34;;;18.07
73662;BMP280;61956;52.540;13.382;2023-05-23T06:13:29;94473.19;;;18.08
73662;BMP280;61956;52.540;13.382;2023-05-23T06:15:59;94664.00;;;18.10
73662;BMP280;61956;52.540;13.382;2023-05-23T06:18:28;94687.47;;;18.13
73662;BMP280;61956;52.540;13.382;2023-05-23T06:20:57;94549.78;;;18.12
73662;BMP280;61956;52.540;13.382;2023-05-23T06:23:29;93933.00;;;18.04
73662;BMP280;61956;52.540;13.382;2023-05-23T06:25:58;94123.03;;;18.05
73662;BMP280;61956;52.540;13.382;2023-05-23T06:28:27;94335.94;;;18.06
73662;BMP280;61956;52.540;13.382;2023-05-23T06:30:56;94776.25;;;18.11
73662;BMP280;61956;52.540;13.382;2023-05-23T06:33:27;94932.63;;;18.14
73662;BMP280;61956;52.540;13.382;2023-05-23T06:35:56;94751.53;;;18.12
73662;BMP280;61956;52.540;13.382;2023-05-23T06:38:30;95697.41;;;18.23
73662;BMP280;61956;52.540;13.382;2023-05-23T06:41:01;95458.00;;;18.26
73662;BMP280;61956;52.540;13.382;2023-05-23T06:43:32;96307.38;;;18.37
73662;BMP280;61956;52.540;13.382;2023-05-23T06:46:13;96864.19;;;18.48
73662;BMP280;61956;52.540;13.382;2023-05-23T06:48:42;97182.13;;;18.57
73662;BMP280;61956;52.540;13.382;2023-05-23T06:51:11;97338.09;;;18.63
73662;BMP280;61956;52.540;13.382;2023-05-23T06:53:43;97950.31;;;18.76
73662;BMP280;61956;52.540;13.382;2023-05-23T06:56:13;98364.31;;;18.88
73662;BMP280;61956;52.540;13.382;2023-05-23T06:58:54;97558.03;;;18.84
73662;BMP280;61956;52.540;13.382;2023-05-23T07:01:23;98872.50;;;19.03
73662;BMP280;61956;52.540;13.382;2023-05-23T07:03:53;99061.72;;;19.15
73662;BMP280;61956;52.540;13.382;2023-05-23T07:06:23;99508.66;;;19.27
73662;BMP280;61956;52.540;13.382;2023-05-23T07:08:55;100069.47;;;19.41
73662;BMP280;61956;52.540;13.382;2023-05-23T07:11:26;99943.38;;;19.54
73662;BMP280;61956;52.540;13.382;2023-05-23T07:13:58;101634.41;;;19.75
73662;BMP280;61956;52.540;13.382;2023-05-23T07:16:40;99990.75;;;19.88
73662;BMP280;61956;52.540;13.382;2023-05-23T07:19:09;99640.53;;;19.76
73662;BMP280;61956;52.540;13.382;2023-05-23T07:21:44;100961.97;;;20.22
73662;BMP280;61956;52.540;13.382;2023-05-23T07:24:18;97824.25;;;19.81
73662;BMP280;61956;52.540;13.382;2023-05-23T07:26:48;97173.97;;;19.59
73662;BMP280;61956;52.540;13.382;2023-05-23T07:29:17;98335.09;;;19.67
73662;BMP280;61956;52.540;13.382;2023-05-23T07:31:48;99788.06;;;19.88
73662;BMP280;61956;52.540;13.382;2023-05-23T07:34:19;99028.97;;;19.89
73662;BMP280;61956;52.540;13.382;2023-05-23T07:36:53;98153.75;;;19.78
73662;BMP280;61956;52.540;13.382;2023-05-23T07:39:29;98775.44;;;19.82
73662;BMP280;61956;52.540;13.382;2023-05-23T07:42:00;98770.59;;;19.84
73662;BMP280;61956;52.540;13.382;2023-05-23T07:44:29;100469.06;;;20.02
73662;BMP280;61956;52.540;13.382;2023-05-23T07:46:58;97952.81;;;19.86
73662;BMP280;61956;52.540;13.382;2023-05-23T07:49:28;97238.94;;;19.69
73662;BMP280;61956;52.540;13.382;2023-05-23T07:51:57;97811.03;;;19.70
73662;BMP280;61956;52.540;13.382;2023-05-23T07:54:29;97897.44;;;19.71
73662;BMP280;61956;52.540;13.382;2023-05-23T07:56:59;97783.59;;;19.67
73662;BMP280;61956;52.540;13.382;2023-05-23T07:59:28;98632.50;;;19.78
73662;BMP280;61956;52.540;13.382;2023-05-23T08:01:58;99456.97;;;19.94
73662;BMP280;61956;52.540;13.382;2023-05-23T08:04:27;98339.91;;;19.84
73662;BMP280;61956;52.540;13.382;2023-05-23T08:06:57;99366.09;;;19.96
73662;BMP280;61956;52.540;13.382;2023-05-23T08:09:36;98315.16;;;19.89
73662;BMP280;61956;52.540;13.382;2023-05-23T08:12:06;99645.69;;;20.02
73662;BMP280;61956;52.540;13.382;2023-05-23T08:14:35;99184.75;;;20.07
73662;BMP280;61956;52.540;13.382;2023-05-23T08:17:21;99413.16;;;20.10
73662;BMP280;61956;52.540;13.382;2023-05-23T08:19:50;110821.47;;;21.59
73662;BMP280;61956;52.540;13.382;2023-05-23T08:22:20;106115.97;;;22.24
73662;BMP280;61956;52.540;13.382;2023-05-23T08:24:52;98075.59;;;21.34
73662;BMP280;61956;52.540;13.382;2023-05-23T08:27:24;98550.75;;;20.90
73662;BMP280;61956;52.540;13.382;2023-05-23T08:29:58;99426.69;;;21.07
73662;BMP280;61956;52.540;13.382;2023-05-23T08:32:28;96946.50;;;20.62
73662;BMP280;61956;52.540;13.382;2023-05-23T08:34:59;96548.63;;;20.36
73662;BMP280;61956;52.540;13.382;2023-05-23T08:37:28;103520.22;;;21.12
73662;BMP280;61956;52.540;13.382;2023-05-23T08:40:00;101231.50;;;21.45
73662;BMP280;61956;52.540;13.382;2023-05-23T08:42:45;102629.44;;;22.32
73662;BMP280;61956;52.540;13.382;2023-05-23T08:45:16;98392.53;;;21.50
73662;BMP280;61956;52.540;13.382;2023-05-23T08:47:47;100189.63;;;21.45
73662;BMP280;61956;52.540;13.382;2023-05-23T08:50:20;102028.34;;;21.97
73662;BMP280;61956;52.540;13.382;2023-05-23T08:52:54;99504.53;;;21.69
73662;BMP280;61956;52.540;13.382;2023-05-23T08:55:29;99415.56;;;21.53
73662;BMP280;61956;52.540;13.382;2023-05-23T08:58:01;101147.84;;;21.68
73662;BMP280;61956;52.540;13.382;2023-05-23T09:00:46;102721.72;;;22.13
73662;BMP280;61956;52.540;13.382;2023-05-23T09:03:16;104206.84;;;22.64
73662;BMP280;61956;52.540;13.382;2023-05-23T09:06:08;103173.06;;;22.66
73662;BMP280;61956;52.540;13.382;2023-05-23T09:08:39;102775.78;;;22.78
73662;BMP280;61956;52.540;13.382;2023-05-23T09:11:15;100711.31;;;22.42
73662;BMP280;61956;52.540;13.382;2023-05-23T09:13:47;102155.06;;;22.52
73662;BMP280;61956;52.540;13.382;2023-05-23T09:16:18;102648.22;;;22.71
73662;BMP280;61956;52.540;13.382;2023-05-23T09:18:50;103458.94;;;22.88
73662;BMP280;61956;52.540;13.382;2023-05-23T09:21:23;103708.72;;;23.11
73662;BMP280;61956;52.540;13.382;2023-05-23T09:24:03;103021.56;;;23.12
73662;BMP280;61956;52.540;13.382;2023-05-23T09:26:36;100793.41;;;22.80
73662;BMP280;61956;52.540;13.382;2023-05-23T09:29:06;100121.19;;;22.57
73662;BMP280;61956;52.540;13.382;2023-05-23T09:31:37;100909.66;;;22.59
73662;BMP280;61956;52.540;13.382;2023-05-23T09:34:06;100541.44;;;22.53
73662;BMP280;61956;52.540;13.382;2023-05-23T09:36:39;101046.09;;;22.60
73662;BMP280;61956;52.540;13.382;2023-05-23T09:39:10;101429.28;;;22.75
73662;BMP280;61956;52.540;13.382;2023-05-23T09:41:42;99881.94;;;22.51
73662;BMP280;61956;52.540;13.382;2023-05-23T09:44:13;98592.69;;;22.16
73662;BMP280;61956;52.540;13.382;2023-05-23T09:46:50;99087.19;;;22.09
73662;BMP280;61956;52.540;13.382;2023-05-23T09:49:20;99694.19;;;22.19
73662;BMP280;61956;52.540;13.382;2023-05-23T09:51:56;99770.81;;;22.19
73662;BMP280;61956;52.540;13.382;2023-05-23T09:54:26;100851.13;;;22.34
73662;BMP280;61956;52.540;13.382;2023-05-23T09:56:58;100958.63;;;22.48
73662;BMP280;61956;52.540;13.382;2023-05-23T09:59:31;100696.66;;;22.53
73662;BMP280;61956;52.540;13.382;2023-05-23T10:02:07;101189.38;;;22.62
73662;BMP280;61956;52.540;13.382;2023-05-23T10:04:40;100160.06;;;22.44
73662;BMP280;61956;52.540;13.382;2023-05-23T10:07:12;99719.69;;;22.27
73662;BMP280;61956;52.540;13.382;2023-05-23T10:09:47;98982.06;;;22.18
73662;BMP280;61956;52.540;13.382;2023-05-23T10:12:45;98460.56;;;22.01
73662;BMP280;61956;52.540;13.382;2023-05-23T10:15:17;99607.41;;;22.05
73662;BMP280;61956;52.540;13.382;2023-05-23T10:17:59;100534.38;;;22.28
73662;BMP280;61956;52.540;13.382;2023-05-23T10:20:32;100221.44;;;22.29
73662;BMP280;61956;52.540;13.382;2023-05-23T10:23:01;101576.44;;;22.44
73662;BMP280;61956;52.540;13.382;2023-05-23T10:25:31;101707.19;;;22.56
73662;BMP280;61956;52.540;13.382;2023-05-23T10:28:04;102258.88;;;22.73
73662;BMP280;61956;52.540;13.382;2023-05-23T10:30:34;103038.47;;;22.95
73662;BMP280;61956;52.540;13.382;2023-05-23T10:33:04;101513.94;;;22.89
73662;BMP280;61956;52.540;13.382;2023-05-23T10:35:41;99431.09;;;22.50
73662;BMP280;61956;52.540;13.382;2023-05-23T10:38:27;98987.16;;;22.27
73662;BMP280;61956;52.540;13.382;2023-05-23T10:41:09;98062.66;;;22.02
73662;BMP280;61956;52.540;13.382;2023-05-23T10:43:52;98161.06;;;21.92
73662;BMP280;61956;52.540;13.382;2023-05-23T10:46:49;98729.69;;;21.91
73662;BMP280;61956;52.540;13.382;2023-05-23T10:49:39;98079.22;;;21.81
73662;BMP280;61956;52.540;13.382;2023-05-23T10:52:11;96682.31;;;21.49
73662;BMP280;61956;52.540;13.382;2023-05-23T10:54:42;97495.88;;;21.47
73662;BMP280;61956;52.540;13.382;2023-05-23T10:57:16;97448.44;;;21.40
73662;BMP280;61956;52.540;13.382;2023-05-23T10:59:55;98418.16;;;21.50
73662;BMP280;61956;52.540;13.382;2023-05-23T11:02:26;98121.63;;;21.44
73662;BMP280;61956;52.540;13.382;2023-05-23T11:05:26;98712.22;;;21.56
73662;BMP280;61956;52.540;13.382;2023-05-23T11:08:08;97522.28;;;21.36
73662;BMP280;61956;52.540;13.382;2023-05-23T11:10:53;96466.09;;;21.13
73662;BMP280;61956;52.540;13.382;2023-05-23T11:16:29;97913.91;;;21.16
73662;BMP280;61956;52.540;13.382;2023-05-23T11:19:20;97678.59;;;21.15
73662;BMP280;61956;52.540;13.382;2023-05-23T11:21:58;97660.13;;;21.15
73662;BMP280;61956;52.540;13.382;2023-05-23T11:24:55;97282.56;;;21.04
73662;BMP280;61956;52.540;13.382;2023-05-23T11:27:27;96486.09;;;20.91
73662;BMP280;61956;52.540;13.382;2023-05-23T11:30:01;96632.19;;;20.83
73662;BMP280;61956;52.540;13.382;2023-05-23T11:32:35;97509.59;;;20.92
73662;BMP280;61956;52.540;13.382;2023-05-23T11:35:09;97760.63;;;20.96
73662;BMP280;61956;52.540;13.382;2023-05-23T11:37:38;98716.78;;;21.13
73662;BMP280;61956;52.540;13.382;2023-05-23T11:40:26;97997.84;;;21.10
73662;BMP280;61956;52.540;13.382;2023-05-23T11:42:57;97728.25;;;20.99
73662;BMP280;61956;52.540;13.382;2023-05-23T11:45:28;98120.56;;;21.04
73662;BMP280;61956;52.540;13.382;2023-05-23T11:48:06;98541.19;;;21.09
73662;BMP280;61956;52.540;13.382;2023-05-23T11:50:45;97284.47;;;20.96
73662;BMP280;61956;52.540;13.382;2023-05-23T11:53:17;97252.91;;;20.89
73662;BMP280;61956;52.540;13.382;2023-05-23T11:55:50;96414.22;;;20.70
73662;BMP280;61956;52.540;13.382;2023-05-23T11:58:25;97031.81;;;20.75
73662;BMP280;61956;52.540;13.382;2023-05-23T12:01:00;97931.47;;;20.87
73662;BMP280;61956;52.540;13.382;2023-05-23T12:03:34;97724.84;;;20.88
73662;BMP280;61956;52.540;13.382;2023-05-23T12:06:14;97245.06;;;20.78
73662;BMP280;61956;52.540;13.382;2023-05-23T12:08:43;97862.22;;;20.83
73662;BMP280;61956;52.540;13.382;2023-05-23T12:11:14;97496.03;;;20.83
73662;BMP280;61956;52.540;13.382;2023-05-23T12:13:43;98702.28;;;21.00
73662;BMP280;61956;52.540;13.382;2023-05-23T12:16:13;98726.41;;;21.02
73662;BMP280;61956;52.540;13.382;2023-05-23T12:18:46;98000.41;;;20.96
73662;BMP280;61956;52.540;13.382;2023-05-23T12:21:16;97834.41;;;20.96
73662;BMP280;61956;52.540;13.382;2023-05-23T12:23:45;95280.41;;;20.52
73662;BMP280;61956;52.540;13.382;2023-05-23T12:26:14;96411.84;;;20.56
73662;BMP280;61956;52.540;13.382;2023-05-23T12:28:44;94378.31;;;20.19
73662;BMP280;61956;52.540;13.382;2023-05-23T12:31:16;94837.91;;;20.12
73662;BMP280;61956;52.540;13.382;2023-05-23T12:33:51;94419.44;;;19.98
73662;BMP280;61956;52.540;13.382;2023-05-23T12:36:22;94219.13;;;19.89
73662;BMP280;61956;52.540;13.382;2023-05-23T12:39:01;95075.13;;;19.85
73662;BMP280;61956;52.540;13.382;2023-05-23T12:41:32;96226.38;;;20.01
73662;BMP280;61956;52.540;13.382;2023-05-23T12:44:01;96394.25;;;20.06
73662;BMP280;61956;52.540;13.382;2023-05-23T12:46:31;95176.47;;;19.95
73662;BMP280;61956;52.540;13.382;2023-05-23T12:49:03;95570.53;;;19.89
73662;BMP280;61956;52.540;13.382;2023-05-23T12:51:32;95707.94;;;19.90
73662;BMP280;61956;52.540;13.382;2023-05-23T12:54:01;95319.59;;;19.81
73662;BMP280;61956;52.540;13.382;2023-05-23T12:56:30;95747.91;;;19.85
73662;BMP280;61956;52.540;13.382;2023-05-23T12:59:01;95934.91;;;19.83
73662;BMP280;61956;52.540;13.382;2023-05-23T13:01:31;95364.19;;;19.72
73662;BMP280;61956;52.540;13.382;2023-05-23T13:04:04;96410.34;;;19.85
73662;BMP280;61956;52.540;13.382;2023-05-23T13:06:33;97518.88;;;20.00
73662;BMP280;61956;52.540;13.382;2023-05-23T13:09:02;97255.09;;;20.00
73662;BMP280;61956;52.540;13.382;2023-05-23T13:11:31;98129.84;;;20.16
73662;BMP280;61956;52.540;13.382;2023-05-23T13:14:01;96733.91;;;20.05
73662;BMP280;61956;52.540;13.382;2023-05-23T13:16:30;95567.25;;;19.85
73662;BMP280;61956;52.540;13.382;2023-05-23T13:19:00;93528.16;;;19.46
73662;BMP280;61956;52.540;13.382;2023-05-23T13:21:32;93268.97;;;19.30
73662;BMP280;61956;52.540;13.382;2023-05-23T13:24:01;92751.69;;;19.14
73662;BMP280;61956;52.540;13.382;2023-05-23T13:26:31;92508.13;;;19.00
73662;BMP280;61956;52.540;13.382;2023-05-23T13:29:00;92680.97;;;18.92
73662;BMP280;61956;52.540;13.382;2023-05-23T13:31:29;92991.03;;;18.87
73662;BMP280;61956;52.540;13.382;2023-05-23T13:33:59;93300.19;;;18.85
73662;BMP280;61956;52.540;13.382;2023-05-23T13:36:31;93062.75;;;18.78
73662;BMP280;61956;52.540;13.382;2023-05-23T13:39:01;92866.63;;;18.71
73662;BMP280;61956;52.540;13.382;2023-05-23T13:41:30;93426.13;;;18.70
73662;BMP280;61956;52.540;13.382;2023-05-23T13:43:59;93547.44;;;18.71
73662;BMP280;61956;52.540;13.382;2023-05-23T13:46:29;92713.69;;;18.57
73662;BMP280;61956;52.540;13.382;2023-05-23T13:48:58;92869.22;;;18.54
73662;BMP280;61956;52.540;13.382;2023-05-23T13:51:30;92212.19;;;18.42
73662;BMP280;61956;52.540;13.382;2023-05-23T13:54:02;92311.06;;;18.35
73662;BMP280;61956;52.540;13.382;2023-05-23T13:56:32;93380.13;;;18.43
73662;BMP280;61956;52.540;13.382;2023-05-23T13:59:01;93687.25;;;18.47
73662;BMP280;61956;52.540;13.382;2023-05-23T14:01:30;93342.72;;;18.43
73662;BMP280;61956;52.540;13.382;2023-05-23T14:03:59;92008.81;;;18.25
73662;BMP280;61956;52.540;13.382;2023-05-23T14:06:31;92922.75;;;18.31
73662;BMP280;61956;52.540;13.382;2023-05-23T14:09:01;93450.97;;;18.34
73662;BMP280;61956;52.540;13.382;2023-05-23T14:11:30;93464.06;;;18.34
73662;BMP280;61956;52.540;13.382;2023-05-23T14:14:00;93585.81;;;18.33
73662;BMP280;61956;52.540;13.382;2023-05-23T14:16:29;93252.28;;;18.27
73662;BMP280;61956;52.540;13.382;2023-05-23T14:18:59;93876.34;;;18.31
73662;BMP280;61956;52.540;13.382;2023-05-23T14:21:30;94042.47;;;18.33
73662;BMP280;61956;52.540;13.382;2023-05-23T14:24:01;93455.19;;;18.26
73662;BMP280;61956;52.540;13.382;2023-05-23T14:26:30;92676.56;;;18.14